createdAt,value
2017-11-30T00:00:24.107Z,61.50
2017-11-30T00:02:58.533Z,52.37
2017-11-30T00:05:32.222Z,52.87
2017-11-30T00:08:07.659Z,53.63
2017-11-30T00:10:43.016Z,55.60
2017-11-30T00:13:17.599Z,59.03
2017-11-30T00:15:52.482Z,60.70
2017-11-30T00:18:26.787Z,53.90
2017-11-30T00:21:02.091Z,49.20
2017-11-30T00:23:36.547Z,58.87
2017-11-30T00:26:10.484Z,58.40
2017-11-30T00:28:45.306Z,55.23
2017-11-30T00:31:20.123Z,60.60
2017-11-30T00:33:55.546Z,63.50
2017-11-30T00:36:29.885Z,52.63
2017-11-30T00:39:04.448Z,56.53
2017-11-30T00:41:39.568Z,59.40
2017-11-30T00:44:25.047Z,50.00
2017-11-30T00:46:59.426Z,65.20
2017-11-30T00:49:33.955Z,57.70
2017-11-30T00:52:08.771Z,72.43
2017-11-30T00:54:43.594Z,60.20
2017-11-30T00:57:17.989Z,58.03
2017-11-30T00:59:52.357Z,55.53
2017-11-30T01:02:26.039Z,62.60
2017-11-30T01:04:59.785Z,61.90
2017-11-30T01:07:33.894Z,61.50
2017-11-30T01:10:08.791Z,64.27
2017-11-30T01:12:43.760Z,57.57
2017-11-30T01:15:18.977Z,56.00
2017-11-30T01:17:54.527Z,66.30
2017-11-30T01:20:29.393Z,70.60
2017-11-30T01:23:04.592Z,58.97
2017-11-30T01:25:39.127Z,57.90
2017-11-30T01:28:12.875Z,59.47
2017-11-30T01:30:47.389Z,62.30
2017-11-30T01:33:21.738Z,70.23
2017-11-30T01:35:56.262Z,68.97
2017-11-30T01:38:31.137Z,69.87
2017-11-30T01:41:06.268Z,79.60
2017-11-30T01:43:41.304Z,73.40
2017-11-30T01:46:15.825Z,65.53
2017-11-30T01:48:50.379Z,80.70
2017-11-30T01:51:25.041Z,70.80
2017-11-30T01:53:59.268Z,68.20
2017-11-30T01:56:33.276Z,73.83
2017-11-30T01:59:06.942Z,67.73
2017-11-30T02:01:42.091Z,72.17
2017-11-30T02:04:16.461Z,71.13
2017-11-30T02:06:51.039Z,69.13
2017-11-30T02:09:25.769Z,77.47
2017-11-30T02:12:00.247Z,64.90
2017-11-30T02:14:35.238Z,68.73
2017-11-30T02:17:09.013Z,74.00
2017-11-30T02:19:43.303Z,77.40
2017-11-30T02:22:18.713Z,68.37
2017-11-30T02:24:53.951Z,74.40
2017-11-30T02:27:29.235Z,75.20
2017-11-30T02:30:04.095Z,73.00
2017-11-30T02:32:38.355Z,72.53
2017-11-30T02:35:12.220Z,71.00
2017-11-30T02:37:46.048Z,78.50
2017-11-30T02:40:19.950Z,68.43
2017-11-30T02:42:56.159Z,69.10
2017-11-30T02:45:31.359Z,74.90
2017-11-30T02:48:05.547Z,70.10
2017-11-30T02:50:39.512Z,78.47
2017-11-30T02:53:14.068Z,66.37
2017-11-30T02:55:48.924Z,75.40
2017-11-30T02:58:23.442Z,63.27
2017-11-30T03:00:58.789Z,69.13
2017-11-30T03:03:33.810Z,67.50
2017-11-30T03:06:08.619Z,79.93
2017-11-30T03:08:42.768Z,63.00
2017-11-30T03:11:17.280Z,69.27
2017-11-30T03:13:51.326Z,71.63
2017-11-30T03:16:25.901Z,71.37
2017-11-30T03:18:59.846Z,63.13
2017-11-30T03:21:33.616Z,68.20
2017-11-30T03:24:07.446Z,89.40
2017-11-30T03:26:42.230Z,71.90
2017-11-30T03:29:17.406Z,81.63
2017-11-30T03:31:51.710Z,73.50
2017-11-30T03:34:26.089Z,76.97
2017-11-30T03:37:00.649Z,78.03
2017-11-30T03:39:35.030Z,71.13
2017-11-30T03:42:09.478Z,65.53
2017-11-30T03:44:43.516Z,61.37
2017-11-30T03:47:17.275Z,70.60
2017-11-30T03:49:51.362Z,88.27
2017-11-30T03:52:25.632Z,66.87
2017-11-30T03:55:00.696Z,69.23
2017-11-30T03:57:34.663Z,64.50
2017-11-30T04:00:08.504Z,74.17
2017-11-30T04:02:43.209Z,73.80
2017-11-30T04:05:17.830Z,56.43
2017-11-30T04:07:52.355Z,62.47
2017-11-30T04:10:26.491Z,62.17
2017-11-30T04:13:00.436Z,66.07
2017-11-30T04:15:35.119Z,69.03
2017-11-30T04:18:09.916Z,68.93
2017-11-30T04:20:43.988Z,75.00
2017-11-30T04:23:17.802Z,73.63
2017-11-30T04:25:52.065Z,68.10
2017-11-30T04:28:25.867Z,63.73
2017-11-30T04:30:59.562Z,59.63
2017-11-30T04:33:33.899Z,65.70
2017-11-30T04:36:08.158Z,69.37
2017-11-30T04:38:42.784Z,65.67
2017-11-30T04:41:16.982Z,69.17
2017-11-30T04:43:52.292Z,70.67
2017-11-30T04:46:26.768Z,66.10
2017-11-30T04:49:01.672Z,69.30
2017-11-30T04:51:36.192Z,73.33
2017-11-30T04:54:10.086Z,70.17
2017-11-30T04:56:44.400Z,64.47
2017-11-30T04:59:20.523Z,72.80
2017-11-30T05:01:55.411Z,67.57
2017-11-30T05:04:31.140Z,75.60
2017-11-30T05:07:06.071Z,63.77
2017-11-30T05:09:40.563Z,74.67
2017-11-30T05:12:15.218Z,65.50
2017-11-30T05:14:49.714Z,65.03
2017-11-30T05:17:23.975Z,70.80
2017-11-30T05:19:59.099Z,68.53
2017-11-30T05:22:34.942Z,65.53
2017-11-30T05:25:10.403Z,58.47
2017-11-30T05:27:44.277Z,66.70
2017-11-30T05:30:18.124Z,58.97
2017-11-30T05:32:52.132Z,68.57
2017-11-30T05:35:26.583Z,70.20
2017-11-30T05:38:01.778Z,66.50
2017-11-30T05:40:35.886Z,57.27
2017-11-30T05:43:10.516Z,57.87
2017-11-30T05:45:45.150Z,58.93
2017-11-30T05:48:19.494Z,66.30
2017-11-30T05:50:53.970Z,60.07
2017-11-30T05:53:28.345Z,59.17
2017-11-30T05:56:03.431Z,63.37
2017-11-30T05:58:39.286Z,65.70
2017-11-30T06:01:14.626Z,66.43
2017-11-30T06:03:48.365Z,61.23
2017-11-30T06:06:22.427Z,52.60
2017-11-30T06:08:57.632Z,52.83
2017-11-30T06:11:32.709Z,60.30
2017-11-30T06:14:06.936Z,51.37
2017-11-30T06:16:41.534Z,58.57
2017-11-30T06:19:15.683Z,57.23
2017-11-30T06:21:50.091Z,63.93
2017-11-30T06:24:24.319Z,56.43
2017-11-30T06:26:59.236Z,52.13
2017-11-30T06:29:33.341Z,58.13
2017-11-30T06:32:07.971Z,53.60
2017-11-30T06:34:42.257Z,50.80
2017-11-30T06:37:16.698Z,59.23
2017-11-30T06:39:51.631Z,55.37
2017-11-30T06:42:26.097Z,55.43
2017-11-30T06:45:01.181Z,54.57
2017-11-30T06:47:35.542Z,63.77
2017-11-30T06:50:10.742Z,55.87
2017-11-30T06:52:44.783Z,66.43
2017-11-30T06:55:19.582Z,50.20
2017-11-30T06:57:55.148Z,49.90
2017-11-30T07:00:30.506Z,54.43
2017-11-30T07:03:05.106Z,54.40
2017-11-30T07:05:39.688Z,58.27
2017-11-30T07:08:14.331Z,66.77
2017-11-30T07:10:49.330Z,56.90
2017-11-30T07:13:24.162Z,54.50
2017-11-30T07:15:58.406Z,54.17
2017-11-30T07:18:32.975Z,59.03
2017-11-30T07:21:07.609Z,67.47
2017-11-30T07:23:42.498Z,61.50
2017-11-30T07:26:17.140Z,52.27
2017-11-30T07:28:51.947Z,57.40
2017-11-30T07:31:27.308Z,53.23
2017-11-30T07:34:01.500Z,55.90
2017-11-30T07:36:36.197Z,62.73
2017-11-30T07:39:11.341Z,59.10
2017-11-30T07:41:45.742Z,60.93
2017-11-30T07:44:20.179Z,55.23
2017-11-30T07:46:54.343Z,55.00
2017-11-30T07:49:29.374Z,53.47
2017-11-30T07:52:03.283Z,53.50
2017-11-30T07:54:37.490Z,48.30
2017-11-30T07:57:11.733Z,50.00
2017-11-30T07:59:45.906Z,42.63
2017-11-30T08:02:21.882Z,56.83
2017-11-30T08:04:56.283Z,55.63
2017-11-30T08:07:30.533Z,48.37
2017-11-30T08:10:05.133Z,50.70
2017-11-30T08:12:39.652Z,55.37
2017-11-30T08:15:14.187Z,58.50
2017-11-30T08:17:48.607Z,48.00
2017-11-30T08:20:22.847Z,49.23
2017-11-30T08:22:58.276Z,49.60
2017-11-30T08:25:32.687Z,50.20
2017-11-30T08:28:07.650Z,56.47
2017-11-30T08:30:42.652Z,46.20
2017-11-30T08:33:17.772Z,49.93
2017-11-30T08:35:52.310Z,48.37
2017-11-30T08:38:27.241Z,55.27
2017-11-30T08:41:01.387Z,53.40
2017-11-30T08:43:35.770Z,50.97
2017-11-30T08:46:10.895Z,49.80
2017-11-30T08:48:45.736Z,52.17
2017-11-30T08:51:20.165Z,52.97
2017-11-30T08:53:55.217Z,52.63
2017-11-30T08:56:30.090Z,45.90
2017-11-30T08:59:04.633Z,53.70
2017-11-30T09:01:39.690Z,56.37
2017-11-30T09:04:14.210Z,48.30
2017-11-30T09:06:49.139Z,44.60
2017-11-30T09:09:24.887Z,56.07
2017-11-30T09:11:59.402Z,45.90
2017-11-30T09:14:33.956Z,51.13
2017-11-30T09:17:08.355Z,51.43
2017-11-30T09:19:42.775Z,45.20
2017-11-30T09:22:16.739Z,43.57
2017-11-30T09:24:51.724Z,53.57
2017-11-30T09:27:26.555Z,50.80
2017-11-30T09:30:01.101Z,52.63
2017-11-30T09:32:35.193Z,51.07
2017-11-30T09:35:09.508Z,45.20
2017-11-30T09:37:43.295Z,42.47
2017-11-30T09:40:18.936Z,51.53
2017-11-30T09:42:53.730Z,41.97
2017-11-30T09:45:28.703Z,48.20
2017-11-30T09:48:03.020Z,42.17
2017-11-30T09:50:38.371Z,52.70
2017-11-30T09:53:12.942Z,50.70
2017-11-30T09:55:47.437Z,50.30
2017-11-30T09:58:22.433Z,43.67
2017-11-30T10:00:56.651Z,42.23
2017-11-30T10:03:31.085Z,52.90
2017-11-30T10:06:05.784Z,47.10
2017-11-30T10:08:41.492Z,45.97
2017-11-30T10:11:15.361Z,48.23
2017-11-30T10:13:49.891Z,47.60
2017-11-30T10:16:24.895Z,38.47
2017-11-30T10:19:00.218Z,50.80
2017-11-30T10:21:34.397Z,43.93
2017-11-30T10:24:10.401Z,46.53
2017-11-30T10:26:46.703Z,48.50
2017-11-30T10:29:21.840Z,41.00
2017-11-30T10:31:56.700Z,45.77
2017-11-30T10:34:31.017Z,43.80
2017-11-30T10:37:05.891Z,45.33
2017-11-30T10:39:40.953Z,43.17
2017-11-30T10:42:14.863Z,46.63
2017-11-30T10:44:48.663Z,40.20
2017-11-30T10:47:22.735Z,39.70
2017-11-30T10:49:58.004Z,40.67
2017-11-30T10:52:32.952Z,33.97
2017-11-30T10:55:07.801Z,49.30
2017-11-30T10:57:42.601Z,34.90
2017-11-30T11:00:17.440Z,31.20
2017-11-30T11:02:52.774Z,30.07
2017-11-30T11:05:27.538Z,36.97
2017-11-30T11:08:02.385Z,38.13
2017-11-30T11:10:36.918Z,33.40
2017-11-30T11:13:12.787Z,37.17
2017-11-30T11:15:47.445Z,33.33
2017-11-30T11:18:22.233Z,36.10
2017-11-30T11:20:57.154Z,29.03
2017-11-30T11:23:31.959Z,33.10
2017-11-30T11:26:05.922Z,34.57
2017-11-30T11:28:41.147Z,34.10
2017-11-30T11:31:15.815Z,30.20
2017-11-30T11:33:50.815Z,30.53
2017-11-30T11:36:25.987Z,30.23
2017-11-30T11:39:00.156Z,30.27
2017-11-30T11:41:33.802Z,32.47
2017-11-30T11:44:08.530Z,36.70
2017-11-30T11:46:43.124Z,41.23
2017-11-30T11:49:18.146Z,32.80
2017-11-30T11:51:52.500Z,36.53
2017-11-30T11:54:26.399Z,33.43
2017-11-30T11:57:01.156Z,29.00
2017-11-30T11:59:35.482Z,24.43
2017-11-30T12:02:10.973Z,29.10
2017-11-30T12:04:45.304Z,30.50
2017-11-30T12:07:20.381Z,30.37
2017-11-30T12:09:55.112Z,28.70
2017-11-30T12:12:29.671Z,30.40
2017-11-30T12:15:04.537Z,29.87
2017-11-30T12:17:39.889Z,31.77
2017-11-30T12:20:14.520Z,34.30
2017-11-30T12:22:49.496Z,31.80
2017-11-30T12:25:24.031Z,31.07
2017-11-30T12:27:58.678Z,29.17
2017-11-30T12:30:33.205Z,44.07
2017-11-30T12:33:07.468Z,32.30
2017-11-30T12:35:41.452Z,46.17
2017-11-30T12:38:15.992Z,29.10
2017-11-30T12:40:51.220Z,39.23
2017-11-30T12:43:26.637Z,42.90
2017-11-30T12:46:00.638Z,36.20
2017-11-30T12:48:34.828Z,35.13
2017-11-30T12:51:09.809Z,33.77
2017-11-30T12:53:45.519Z,37.70
2017-11-30T12:56:20.381Z,37.83
2017-11-30T12:58:55.420Z,33.80
2017-11-30T13:01:29.415Z,37.00
2017-11-30T13:04:03.912Z,36.70
2017-11-30T13:06:38.505Z,32.10
2017-11-30T13:09:14.053Z,34.73
2017-11-30T13:11:47.912Z,34.83
2017-11-30T13:14:21.968Z,38.70
2017-11-30T13:16:56.338Z,40.27
2017-11-30T13:19:31.369Z,36.83
2017-11-30T13:22:07.136Z,40.17
2017-11-30T13:24:41.853Z,32.27
2017-11-30T13:27:16.329Z,37.80
2017-11-30T13:29:50.604Z,37.33
2017-11-30T13:32:26.041Z,41.10
2017-11-30T13:35:00.661Z,41.07
2017-11-30T13:37:34.765Z,34.17
2017-11-30T13:40:08.813Z,38.93
2017-11-30T13:42:43.107Z,30.83
2017-11-30T13:45:18.684Z,34.57
2017-11-30T13:47:53.533Z,27.47
2017-11-30T13:50:27.934Z,35.63
2017-11-30T13:53:03.321Z,33.23
2017-11-30T13:55:37.756Z,32.80
2017-11-30T13:58:20.776Z,33.17
2017-11-30T14:00:55.711Z,42.40
2017-11-30T14:03:30.328Z,30.97
2017-11-30T14:06:04.725Z,39.33
2017-11-30T14:08:39.357Z,30.70
2017-11-30T14:11:15.234Z,31.47
2017-11-30T14:13:49.234Z,39.13
2017-11-30T14:16:23.778Z,35.80
2017-11-30T14:18:58.390Z,33.80
2017-11-30T14:21:33.629Z,35.70
2017-11-30T14:24:07.770Z,28.53
2017-11-30T14:26:42.714Z,31.77
2017-11-30T14:29:17.713Z,27.43
2017-11-30T14:31:52.854Z,32.27
2017-11-30T14:34:28.092Z,25.53
2017-11-30T14:37:03.786Z,24.43
2017-11-30T14:39:38.259Z,29.83
2017-11-30T14:42:12.849Z,32.73
2017-11-30T14:44:48.631Z,26.93
2017-11-30T14:47:23.573Z,26.50
2017-11-30T14:49:58.093Z,26.93
2017-11-30T14:52:33.269Z,32.53
2017-11-30T14:55:07.791Z,25.70
2017-11-30T14:57:43.063Z,35.67
2017-11-30T15:00:17.908Z,26.40
2017-11-30T15:02:51.872Z,30.17
2017-11-30T15:05:26.653Z,25.60
2017-11-30T15:08:01.535Z,26.50
2017-11-30T15:10:36.518Z,30.83
2017-11-30T15:13:11.870Z,28.70
2017-11-30T15:15:46.473Z,31.83
2017-11-30T15:18:20.986Z,27.60
2017-11-30T15:20:56.426Z,31.60
2017-11-30T15:23:32.337Z,31.73
2017-11-30T15:26:07.337Z,28.17
2017-11-30T15:28:42.664Z,29.93
2017-11-30T15:31:16.872Z,29.20
2017-11-30T15:33:51.198Z,29.27
2017-11-30T15:36:26.501Z,29.27
2017-11-30T15:39:01.931Z,34.67
2017-11-30T15:41:36.527Z,26.47
2017-11-30T15:44:11.470Z,27.90
2017-11-30T15:46:46.808Z,29.17
2017-11-30T15:49:20.633Z,28.87
2017-11-30T15:51:55.717Z,33.90
2017-11-30T15:54:30.567Z,28.70
2017-11-30T15:57:04.783Z,30.87
2017-11-30T15:59:39.270Z,24.27
2017-11-30T16:02:13.750Z,30.07
2017-11-30T16:04:48.271Z,33.83
2017-11-30T16:07:23.202Z,36.23
2017-11-30T16:09:58.182Z,26.03
2017-11-30T16:12:33.144Z,28.97
2017-11-30T16:15:08.638Z,19.67
2017-11-30T16:17:43.264Z,28.60
2017-11-30T16:20:16.888Z,29.70
2017-11-30T16:22:51.136Z,24.27
2017-11-30T16:25:27.397Z,28.20
2017-11-30T16:28:01.864Z,29.90
2017-11-30T16:30:37.519Z,30.53
2017-11-30T16:33:13.181Z,28.30
2017-11-30T16:35:48.551Z,26.37
2017-11-30T16:38:23.177Z,25.47
2017-11-30T16:40:58.166Z,28.27
2017-11-30T16:43:33.842Z,22.53
2017-11-30T16:46:09.566Z,29.73
2017-11-30T16:48:44.721Z,34.00
2017-11-30T16:51:18.809Z,26.00
2017-11-30T16:53:53.975Z,30.70
2017-11-30T16:56:29.673Z,28.63
2017-11-30T16:59:04.465Z,30.37
2017-11-30T17:01:43.528Z,31.23
2017-11-30T17:04:18.470Z,25.00
2017-11-30T17:06:52.840Z,30.08
2017-11-30T17:09:27.787Z,29.63
2017-11-30T17:12:02.684Z,33.43
2017-11-30T17:14:37.138Z,29.07
2017-11-30T17:17:12.457Z,28.87
2017-11-30T17:19:46.876Z,38.70
2017-11-30T17:22:21.550Z,33.20
2017-11-30T17:24:56.026Z,25.90
2017-11-30T17:27:30.567Z,25.43
2017-11-30T17:30:05.711Z,30.77
2017-11-30T17:32:40.951Z,24.07
2017-11-30T17:35:14.941Z,28.93
2017-11-30T17:37:48.770Z,28.33
2017-11-30T17:40:23.085Z,29.90
2017-11-30T17:42:57.741Z,33.80
2017-11-30T17:45:32.905Z,30.60
2017-11-30T17:48:07.466Z,30.50
2017-11-30T17:50:41.782Z,28.90
2017-11-30T17:53:15.984Z,31.33
2017-11-30T17:55:51.040Z,32.03
2017-11-30T17:58:25.844Z,33.00
2017-11-30T18:01:01.610Z,29.30
2017-11-30T18:03:37.690Z,30.40
2017-11-30T18:06:13.334Z,31.37
2017-11-30T18:08:47.728Z,30.27
2017-11-30T18:11:23.090Z,32.07
2017-11-30T18:13:57.520Z,29.97
2017-11-30T18:16:31.690Z,36.73
2017-11-30T18:19:05.641Z,33.43
2017-11-30T18:21:39.717Z,35.60
2017-11-30T18:24:14.318Z,34.63
2017-11-30T18:26:48.625Z,34.57
2017-11-30T18:29:22.417Z,34.87
2017-11-30T18:31:56.923Z,34.30
2017-11-30T18:34:31.119Z,30.03
2017-11-30T18:37:05.821Z,36.77
2017-11-30T18:39:39.651Z,35.93
2017-11-30T18:42:13.460Z,32.47
2017-11-30T18:44:48.352Z,31.60
2017-11-30T18:47:22.605Z,36.40
2017-11-30T18:49:56.981Z,34.97
2017-11-30T18:52:31.950Z,31.63
2017-11-30T18:55:06.356Z,34.57
2017-11-30T18:57:40.785Z,32.00
2017-11-30T19:00:15.624Z,34.10
2017-11-30T19:02:50.181Z,38.63
2017-11-30T19:05:25.035Z,117.77
2017-11-30T19:08:00.327Z,34.33
2017-11-30T19:10:34.317Z,36.03
2017-11-30T19:13:08.903Z,33.00
2017-11-30T19:15:43.431Z,38.87
2017-11-30T19:18:18.733Z,35.80
2017-11-30T19:20:53.373Z,36.67
2017-11-30T19:23:27.894Z,30.43
2017-11-30T19:26:03.307Z,35.70
2017-11-30T19:28:37.433Z,31.67
2017-11-30T19:31:11.194Z,34.00
2017-11-30T19:33:45.377Z,29.60
2017-11-30T19:36:20.046Z,38.10
2017-11-30T19:38:54.525Z,27.60
2017-11-30T19:41:28.737Z,29.00
2017-11-30T19:44:03.772Z,33.97
2017-11-30T19:46:38.749Z,34.03
2017-11-30T19:49:12.988Z,37.90
2017-11-30T19:51:47.519Z,33.03
2017-11-30T19:54:22.745Z,35.57
2017-11-30T19:56:57.409Z,39.53
2017-11-30T19:59:32.715Z,32.97
2017-11-30T20:02:07.855Z,36.97
2017-11-30T20:04:42.303Z,34.20
2017-11-30T20:07:17.172Z,32.13
2017-11-30T20:09:51.236Z,33.50
2017-11-30T20:12:25.647Z,33.97
2017-11-30T20:15:00.666Z,34.30
2017-11-30T20:17:34.990Z,39.13
2017-11-30T20:20:10.506Z,34.80
2017-11-30T20:22:45.116Z,37.87
2017-11-30T20:25:19.693Z,37.40
2017-11-30T20:27:55.168Z,39.23
2017-11-30T20:30:30.054Z,36.10
2017-11-30T20:33:04.753Z,29.87
2017-11-30T20:35:39.186Z,34.87
2017-11-30T20:38:14.150Z,33.37
2017-11-30T20:40:49.412Z,34.53
2017-11-30T20:43:23.674Z,34.00
2017-11-30T20:45:58.700Z,34.13
2017-11-30T20:48:33.641Z,32.77
2017-11-30T20:51:07.732Z,37.53
2017-11-30T20:53:42.695Z,36.37
2017-11-30T20:56:17.525Z,29.50
2017-11-30T20:58:52.373Z,32.57
2017-11-30T21:01:27.632Z,41.67
2017-11-30T21:04:01.732Z,37.37
2017-11-30T21:06:35.710Z,34.17
2017-11-30T21:09:10.438Z,24.87
2017-11-30T21:11:44.458Z,36.27
2017-11-30T21:14:18.357Z,39.33
2017-11-30T21:16:52.958Z,36.77
2017-11-30T21:19:27.403Z,37.17
2017-11-30T21:22:01.931Z,34.10
2017-11-30T21:24:36.048Z,37.33
2017-11-30T21:27:12.013Z,36.23
2017-11-30T21:29:46.080Z,36.50
2017-11-30T21:32:20.204Z,36.97
2017-11-30T21:34:55.070Z,34.00
2017-11-30T21:37:30.169Z,33.27
2017-11-30T21:40:04.987Z,38.40
2017-11-30T21:42:40.570Z,35.93
2017-11-30T21:45:15.040Z,32.83
2017-11-30T21:47:49.710Z,35.80
2017-11-30T21:50:23.631Z,35.73
2017-11-30T21:52:58.011Z,32.47
2017-11-30T21:55:32.565Z,33.03
2017-11-30T21:58:06.309Z,31.33
2017-11-30T22:00:40.695Z,34.33
2017-11-30T22:03:15.094Z,39.93
2017-11-30T22:05:49.890Z,36.13
2017-11-30T22:08:24.734Z,33.13
2017-11-30T22:10:59.082Z,33.20
2017-11-30T22:13:33.595Z,32.10
2017-11-30T22:16:08.457Z,31.80
2017-11-30T22:18:43.059Z,34.00
2017-11-30T22:21:18.323Z,31.33
2017-11-30T22:23:53.017Z,39.50
2017-11-30T22:26:27.034Z,28.57
2017-11-30T22:29:01.542Z,31.67
2017-11-30T22:31:35.436Z,28.17
2017-11-30T22:34:09.782Z,29.90
2017-11-30T22:36:43.702Z,30.93
2017-11-30T22:39:17.253Z,30.03
2017-11-30T22:41:51.817Z,30.07
2017-11-30T22:44:25.754Z,30.43
2017-11-30T22:46:59.938Z,30.40
2017-11-30T22:49:33.817Z,29.97
2017-11-30T22:52:08.077Z,29.43
2017-11-30T22:54:42.690Z,33.93
2017-11-30T22:57:16.996Z,35.83
2017-11-30T22:59:52.245Z,37.97
2017-11-30T23:02:27.163Z,35.63
2017-11-30T23:05:01.306Z,32.00
2017-11-30T23:07:35.226Z,26.87
2017-11-30T23:10:09.680Z,33.10
2017-11-30T23:12:43.928Z,39.20
2017-11-30T23:15:18.316Z,38.60
2017-11-30T23:17:53.186Z,34.57
2017-11-30T23:20:28.877Z,40.03
2017-11-30T23:23:03.336Z,33.40
2017-11-30T23:25:37.261Z,33.43
2017-11-30T23:28:10.909Z,37.10
2017-11-30T23:30:45.454Z,33.73
2017-11-30T23:33:19.795Z,32.83
2017-11-30T23:35:54.135Z,35.50
2017-11-30T23:38:28.742Z,30.60
2017-11-30T23:41:03.521Z,35.60
2017-11-30T23:43:38.096Z,36.83
2017-11-30T23:46:11.954Z,30.70
2017-11-30T23:48:46.089Z,34.03
2017-11-30T23:51:21.072Z,36.37
2017-11-30T23:53:55.906Z,36.13
2017-11-30T23:56:30.618Z,36.23
2017-11-30T23:59:05.099Z,34.63
